createdAt,value
2018-07-23T00:00:45.035Z,12.83
2018-07-23T00:03:48.704Z,12.80
2018-07-23T00:06:52.236Z,11.93
2018-07-23T00:09:55.882Z,12.00
2018-07-23T00:12:58.217Z,12.47
2018-07-23T00:16:04.413Z,12.13
2018-07-23T00:19:06.698Z,11.63
2018-07-23T00:22:10.110Z,12.57
2018-07-23T00:25:12.440Z,12.60
2018-07-23T00:28:14.796Z,14.10
2018-07-23T00:31:17.361Z,14.37
2018-07-23T00:34:20.048Z,13.10
2018-07-23T00:37:23.167Z,12.70
2018-07-23T00:40:25.695Z,12.93
2018-07-23T00:43:28.315Z,12.27
2018-07-23T00:46:30.772Z,11.63
2018-07-23T00:49:33.322Z,12.90
2018-07-23T00:52:36.302Z,13.27
2018-07-23T00:55:38.866Z,13.60
2018-07-23T00:58:41.393Z,12.90
2018-07-23T01:01:43.838Z,13.50
2018-07-23T01:04:46.211Z,13.00
2018-07-23T01:07:48.664Z,12.83
2018-07-23T01:10:51.142Z,12.70
2018-07-23T01:13:53.611Z,11.97
2018-07-23T01:16:56.380Z,14.80
2018-07-23T01:19:59.470Z,14.73
2018-07-23T01:23:01.985Z,14.00
2018-07-23T01:26:04.506Z,13.53
2018-07-23T01:29:06.930Z,15.57
2018-07-23T01:32:09.535Z,14.17
2018-07-23T01:35:11.999Z,16.13
2018-07-23T01:38:14.583Z,15.23
2018-07-23T01:41:16.876Z,14.20
2018-07-23T01:44:20.376Z,14.03
2018-07-23T01:47:23.774Z,13.77
2018-07-23T01:50:27.176Z,13.47
2018-07-23T01:53:29.611Z,14.93
2018-07-23T01:56:31.902Z,15.20
2018-07-23T01:59:34.235Z,15.37
2018-07-23T02:02:36.576Z,16.07
2018-07-23T02:05:38.849Z,15.23
2018-07-23T02:08:41.430Z,17.07
2018-07-23T02:11:43.878Z,19.97
2018-07-23T02:14:46.308Z,17.70
2018-07-23T02:17:48.864Z,16.43
2018-07-23T02:20:51.669Z,18.00
2018-07-23T02:23:54.147Z,16.20
2018-07-23T02:26:56.568Z,15.87
2018-07-23T02:29:59.038Z,18.00
2018-07-23T02:33:01.446Z,15.17
2018-07-23T02:36:04.858Z,14.40
2018-07-23T02:39:09.590Z,15.60
2018-07-23T02:42:12.062Z,16.03
2018-07-23T02:45:16.604Z,14.67
2018-07-23T02:48:19.062Z,16.10
2018-07-23T02:51:21.495Z,15.53
2018-07-23T02:54:23.921Z,14.33
2018-07-23T02:57:26.407Z,12.73
2018-07-23T03:00:28.945Z,12.13
2018-07-23T03:03:31.552Z,12.93
2018-07-23T03:06:34.100Z,13.87
2018-07-23T03:09:36.611Z,14.70
2018-07-23T03:12:40.934Z,13.77
2018-07-23T03:15:43.292Z,14.67
2018-07-23T03:18:45.661Z,13.93
2018-07-23T03:21:48.108Z,15.33
2018-07-23T03:24:50.520Z,15.13
2018-07-23T03:27:56.776Z,16.07
2018-07-23T03:30:59.200Z,15.23
2018-07-23T03:34:02.686Z,16.23
2018-07-23T03:37:06.089Z,16.83
2018-07-23T03:40:08.531Z,14.67
2018-07-23T03:43:11.031Z,15.70
2018-07-23T03:46:13.460Z,14.83
2018-07-23T03:49:15.967Z,16.27
2018-07-23T03:52:18.438Z,14.07
2018-07-23T03:55:21.053Z,14.53
2018-07-23T03:58:23.540Z,15.97
2018-07-23T04:01:25.955Z,17.07
2018-07-23T04:04:28.350Z,17.50
2018-07-23T04:07:30.643Z,15.40
2018-07-23T04:10:34.017Z,18.60
2018-07-23T04:13:36.488Z,16.33
2018-07-23T04:16:38.923Z,16.23
2018-07-23T04:19:41.347Z,16.93
2018-07-23T04:22:43.780Z,15.63
2018-07-23T04:25:46.098Z,15.73
2018-07-23T04:28:48.599Z,14.63
2018-07-23T04:31:51.203Z,14.87
2018-07-23T04:34:53.532Z,14.80
2018-07-23T04:37:56.928Z,16.00
2018-07-23T04:40:59.338Z,13.20
2018-07-23T04:44:01.814Z,12.77
2018-07-23T04:47:04.483Z,12.00
2018-07-23T04:50:09.063Z,14.60
2018-07-23T04:53:11.485Z,13.77
2018-07-23T04:56:14.938Z,16.63
2018-07-23T04:59:17.421Z,13.80
2018-07-23T05:02:19.887Z,13.20
2018-07-23T05:05:23.232Z,14.40
2018-07-23T05:08:25.475Z,12.20
2018-07-23T05:11:27.827Z,15.27
2018-07-23T05:14:30.221Z,13.33
2018-07-23T05:17:32.650Z,12.40
2018-07-23T05:20:36.071Z,12.10
2018-07-23T05:23:38.396Z,10.57
2018-07-23T05:26:40.855Z,11.13
2018-07-23T05:29:43.389Z,11.83
2018-07-23T05:32:45.758Z,10.47
2018-07-23T05:35:48.165Z,11.13
2018-07-23T05:38:50.744Z,10.60
2018-07-23T05:41:53.125Z,10.37
2018-07-23T05:44:55.469Z,10.63
2018-07-23T05:47:57.903Z,10.77
2018-07-23T05:51:00.456Z,11.30
2018-07-23T05:54:03.030Z,10.03
2018-07-23T05:57:05.807Z,10.27
2018-07-23T06:00:08.567Z,10.47
2018-07-23T06:04:14.123Z,13.40
2018-07-23T06:07:16.654Z,10.23
2018-07-23T06:10:19.341Z,10.70
2018-07-23T06:13:21.985Z,9.80
2018-07-23T06:16:24.202Z,10.40
2018-07-23T06:19:26.560Z,10.17
2018-07-23T06:22:28.967Z,10.90
2018-07-23T06:25:31.384Z,10.10
2018-07-23T06:28:33.932Z,10.60
2018-07-23T06:31:36.535Z,12.17
2018-07-23T06:34:39.067Z,10.53
2018-07-23T06:37:41.619Z,9.33
2018-07-23T06:40:44.268Z,10.20
2018-07-23T06:43:48.920Z,9.83
2018-07-23T06:46:51.125Z,9.23
2018-07-23T06:49:54.537Z,9.30
2018-07-23T06:52:56.856Z,10.20
2018-07-23T06:55:59.369Z,8.87
2018-07-23T06:59:01.743Z,10.30
2018-07-23T07:02:04.476Z,9.50
2018-07-23T07:05:07.184Z,9.47
2018-07-23T07:08:09.719Z,10.00
2018-07-23T07:11:12.261Z,9.17
2018-07-23T07:14:14.664Z,9.83
2018-07-23T07:17:17.237Z,9.27
2018-07-23T07:20:19.536Z,10.03
2018-07-23T07:23:21.896Z,10.03
2018-07-23T07:26:25.319Z,10.33
2018-07-23T07:29:27.601Z,10.70
2018-07-23T07:32:30.058Z,10.60
2018-07-23T07:35:32.418Z,9.97
2018-07-23T07:38:35.719Z,10.03
2018-07-23T07:41:38.512Z,8.80
2018-07-23T07:44:40.969Z,10.23
2018-07-23T07:47:43.581Z,12.23
2018-07-23T07:50:48.113Z,8.80
2018-07-23T07:53:50.640Z,10.63
2018-07-23T07:56:53.164Z,9.07
2018-07-23T07:59:55.841Z,15.90
2018-07-23T08:02:58.328Z,9.97
2018-07-23T08:06:00.852Z,12.27
2018-07-23T08:09:05.519Z,9.23
2018-07-23T08:12:08.112Z,13.83
2018-07-23T08:15:10.516Z,10.33
2018-07-23T08:18:12.762Z,8.83
2018-07-23T08:21:16.159Z,15.07
2018-07-23T08:24:18.517Z,13.30
2018-07-23T08:27:20.846Z,12.90
2018-07-23T08:30:23.240Z,11.23
2018-07-23T08:33:25.596Z,12.93
2018-07-23T08:36:28.130Z,12.63
2018-07-23T08:39:30.552Z,7.53
2018-07-23T08:42:34.318Z,6.80
2018-07-23T08:45:37.861Z,6.00
2018-07-23T08:48:40.389Z,6.90
2018-07-23T08:51:42.648Z,5.53
2018-07-23T08:54:45.541Z,6.10
2018-07-23T08:57:47.863Z,6.03
2018-07-23T09:00:50.212Z,6.73
2018-07-23T09:03:52.499Z,5.50
2018-07-23T09:06:55.805Z,6.70
2018-07-23T09:11:42.034Z,7.77
2018-07-23T09:14:44.783Z,6.70
2018-07-23T09:17:47.046Z,6.00
2018-07-23T09:20:49.318Z,6.87
2018-07-23T09:23:51.631Z,5.60
2018-07-23T09:26:54.346Z,6.13
2018-07-23T09:29:56.692Z,8.13
2018-07-23T09:32:59.068Z,5.30
2018-07-23T09:36:01.393Z,5.60
2018-07-23T09:39:06.976Z,4.40
2018-07-23T09:42:09.355Z,4.07
2018-07-23T09:45:12.386Z,5.77
2018-07-23T09:48:14.663Z,5.57
2018-07-23T09:51:16.944Z,4.17
2018-07-23T09:54:19.298Z,4.60
2018-07-23T09:57:21.682Z,6.00
2018-07-23T10:01:30.374Z,3.97
2018-07-23T10:04:32.661Z,4.23
2018-07-23T10:07:36.114Z,4.27
2018-07-23T10:14:22.597Z,4.27
2018-07-23T10:17:25.346Z,7.73
2018-07-23T10:20:27.887Z,4.90
2018-07-23T10:23:30.426Z,4.53
2018-07-23T10:26:33.138Z,4.37
2018-07-23T10:29:35.721Z,4.30
2018-07-23T10:32:38.436Z,4.37
2018-07-23T10:35:40.805Z,4.23
2018-07-23T10:38:43.117Z,4.13
2018-07-23T10:41:45.575Z,3.90
2018-07-23T10:44:47.758Z,5.00
2018-07-23T10:47:50.097Z,4.60
2018-07-23T10:50:52.384Z,4.03
2018-07-23T10:53:54.696Z,5.50
2018-07-23T10:56:56.988Z,4.30
2018-07-23T10:59:59.261Z,4.60
2018-07-23T11:03:01.555Z,4.50
2018-07-23T11:06:04.058Z,5.83
2018-07-23T11:09:07.263Z,4.83
2018-07-23T11:12:09.612Z,5.30
2018-07-23T11:15:11.932Z,4.70
2018-07-23T11:18:14.208Z,5.90
2018-07-23T11:21:16.458Z,4.37
2018-07-23T11:24:18.859Z,4.63
2018-07-23T11:27:21.168Z,4.67
2018-07-23T11:30:23.626Z,6.37
2018-07-23T11:33:25.835Z,4.30
2018-07-23T11:36:28.271Z,4.93
2018-07-23T11:39:30.622Z,5.00
2018-07-23T11:42:32.890Z,4.87
2018-07-23T11:45:35.162Z,5.60
2018-07-23T11:48:37.493Z,4.00
2018-07-23T11:51:39.714Z,4.17
2018-07-23T11:54:42.407Z,5.03
2018-07-23T11:57:45.689Z,3.90
2018-07-23T12:00:47.972Z,3.87
2018-07-23T12:03:50.290Z,3.60
2018-07-23T12:06:52.582Z,3.40
2018-07-23T12:09:54.958Z,3.60
2018-07-23T12:12:57.182Z,3.17
2018-07-23T12:15:59.394Z,2.90
2018-07-23T12:19:01.844Z,2.17
2018-07-23T12:22:04.081Z,2.27
2018-07-23T12:25:06.460Z,2.70
2018-07-23T12:28:08.785Z,3.10
2018-07-23T12:31:11.134Z,1.67
2018-07-23T12:34:13.397Z,4.27
2018-07-23T12:37:15.731Z,1.70
2018-07-23T12:40:18.090Z,3.47
2018-07-23T12:43:20.627Z,2.63
2018-07-23T12:46:23.019Z,2.47
2018-07-23T12:49:26.341Z,2.43
2018-07-23T12:52:29.454Z,2.60
2018-07-23T12:55:31.749Z,2.70
2018-07-23T12:58:34.416Z,2.70
2018-07-23T13:01:36.813Z,2.67
2018-07-23T13:04:40.085Z,7.77
2018-07-23T13:07:42.471Z,2.73
2018-07-23T13:10:44.740Z,2.67
2018-07-23T13:13:47.026Z,2.60
2018-07-23T13:16:49.464Z,2.77
2018-07-23T13:19:51.761Z,4.93
2018-07-23T13:22:54.078Z,4.33
2018-07-23T13:25:56.386Z,4.17
2018-07-23T13:28:58.734Z,3.73
2018-07-23T13:32:01.060Z,4.80
2018-07-23T13:35:03.653Z,3.50
2018-07-23T13:38:06.022Z,4.30
2018-07-23T13:41:08.422Z,4.37
2018-07-23T13:44:11.579Z,3.80
2018-07-23T13:47:13.854Z,4.23
2018-07-23T13:50:16.186Z,4.00
2018-07-23T13:53:18.585Z,4.03
2018-07-23T13:56:21.103Z,7.47
2018-07-23T13:59:23.480Z,4.07
2018-07-23T14:02:25.810Z,4.63
2018-07-23T14:05:28.087Z,5.10
2018-07-23T14:08:30.414Z,4.03
2018-07-23T14:11:32.768Z,3.80
2018-07-23T14:14:35.272Z,3.93
2018-07-23T14:17:37.674Z,7.17
2018-07-23T14:20:40.199Z,6.50
2018-07-23T14:23:42.556Z,6.50
2018-07-23T14:26:44.801Z,4.17
2018-07-23T14:29:47.037Z,4.03
2018-07-23T14:32:49.315Z,4.53
2018-07-23T14:35:51.639Z,4.77
2018-07-23T14:38:54.012Z,4.43
2018-07-23T14:41:56.304Z,3.93
2018-07-23T14:44:58.892Z,4.50
2018-07-23T14:48:01.254Z,4.03
2018-07-23T14:51:03.645Z,3.87
2018-07-23T14:54:06.214Z,3.83
2018-07-23T14:57:08.482Z,3.83
2018-07-23T15:00:10.905Z,7.50
2018-07-23T15:03:13.310Z,3.40
2018-07-23T15:06:15.633Z,3.70
2018-07-23T15:09:17.982Z,3.87
2018-07-23T15:12:20.214Z,3.90
2018-07-23T15:15:22.559Z,4.07
2018-07-23T15:18:24.880Z,3.07
2018-07-23T15:21:27.190Z,3.50
2018-07-23T15:24:29.474Z,5.43
2018-07-23T15:27:31.830Z,5.10
2018-07-23T15:30:34.072Z,3.60
2018-07-23T15:33:36.384Z,4.10
2018-07-23T15:36:38.770Z,3.73
2018-07-23T15:39:41.069Z,3.80
2018-07-23T15:42:43.385Z,3.90
2018-07-23T15:45:45.841Z,5.07
2018-07-23T15:48:47.922Z,4.30
2018-07-23T15:51:50.224Z,3.73
2018-07-23T15:54:52.602Z,3.97
2018-07-23T15:57:54.893Z,4.27
2018-07-23T16:00:57.221Z,3.80
2018-07-23T16:03:59.520Z,3.53
2018-07-23T16:07:01.801Z,5.53
2018-07-23T16:10:04.116Z,3.97
2018-07-23T16:13:06.407Z,4.30
2018-07-23T16:16:08.653Z,3.70
2018-07-23T16:19:10.932Z,5.60
2018-07-23T16:22:13.224Z,3.50
2018-07-23T16:25:15.473Z,3.67
2018-07-23T16:28:17.744Z,3.30
2018-07-23T16:31:20.115Z,3.07
2018-07-23T16:34:22.376Z,3.03
2018-07-23T16:37:24.695Z,3.50
2018-07-23T16:40:26.987Z,3.40
2018-07-23T16:43:29.353Z,4.53
2018-07-23T16:46:31.618Z,4.00
2018-07-23T16:49:33.986Z,5.50
2018-07-23T16:52:36.244Z,5.47
2018-07-23T16:55:38.587Z,5.00
2018-07-23T16:58:40.846Z,6.23
2018-07-23T17:01:45.784Z,5.83
2018-07-23T17:04:48.127Z,6.13
2018-07-23T17:07:50.455Z,6.00
2018-07-23T17:10:52.797Z,6.00
2018-07-23T17:13:55.030Z,5.60
2018-07-23T17:16:57.322Z,5.97
2018-07-23T17:19:59.669Z,6.93
2018-07-23T17:23:02.077Z,5.70
2018-07-23T17:26:04.445Z,5.03
2018-07-23T17:29:06.744Z,7.43
2018-07-23T17:32:09.359Z,5.50
2018-07-23T17:35:11.731Z,10.13
2018-07-23T17:38:14.031Z,5.13
2018-07-23T17:41:16.441Z,5.37
2018-07-23T17:44:19.017Z,5.40
2018-07-23T17:47:21.345Z,6.53
2018-07-23T17:50:23.581Z,5.90
2018-07-23T17:53:25.918Z,6.10
2018-07-23T17:56:28.240Z,7.17
2018-07-23T17:59:30.466Z,8.50
2018-07-23T18:02:32.777Z,8.90
2018-07-23T18:05:35.013Z,8.73
2018-07-23T18:08:37.359Z,10.50
2018-07-23T18:11:39.717Z,9.37
2018-07-23T18:14:42.140Z,9.73
2018-07-23T18:17:44.543Z,8.80
2018-07-23T18:20:47.025Z,8.53
2018-07-23T18:23:49.239Z,8.20
2018-07-23T18:26:51.484Z,8.63
2018-07-23T18:29:53.717Z,11.53
2018-07-23T18:32:55.930Z,10.33
2018-07-23T18:35:58.219Z,12.10
2018-07-23T18:39:00.603Z,12.00
2018-07-23T18:42:02.956Z,10.97
2018-07-23T18:45:05.730Z,14.40
2018-07-23T18:48:19.375Z,13.60
2018-07-23T18:51:31.099Z,8.40
2018-07-23T18:54:33.974Z,8.30
2018-07-23T18:57:36.166Z,7.97
2018-07-23T19:00:38.469Z,7.97
2018-07-23T19:03:40.862Z,11.03
2018-07-23T19:06:43.193Z,10.10
2018-07-23T19:09:45.666Z,8.70
2018-07-23T19:12:48.510Z,12.00
2018-07-23T19:15:50.881Z,9.60
2018-07-23T19:18:53.245Z,7.13
2018-07-23T19:21:55.548Z,11.93
2018-07-23T19:24:57.954Z,8.03
2018-07-23T19:28:00.282Z,7.83
2018-07-23T19:31:02.540Z,10.90
2018-07-23T19:34:05.289Z,8.20
2018-07-23T19:37:07.797Z,7.60
2018-07-23T19:40:10.003Z,7.53
2018-07-23T19:43:12.509Z,7.40
2018-07-23T19:46:14.862Z,10.33
2018-07-23T19:49:17.161Z,8.47
2018-07-23T19:52:19.563Z,9.53
2018-07-23T19:55:21.929Z,8.60
2018-07-23T19:58:24.243Z,8.37
2018-07-23T20:01:26.489Z,8.83
2018-07-23T20:04:28.731Z,10.17
2018-07-23T20:07:31.069Z,9.57
2018-07-23T20:10:33.361Z,13.23
2018-07-23T20:13:35.659Z,10.50
2018-07-23T20:16:38.018Z,9.63
2018-07-23T20:19:40.357Z,10.53
2018-07-23T20:22:42.616Z,10.07
2018-07-23T20:25:44.955Z,13.30
2018-07-23T20:28:47.384Z,10.80
2018-07-23T20:31:49.757Z,10.27
2018-07-23T20:34:51.985Z,10.83
2018-07-23T20:37:54.395Z,9.60
2018-07-23T20:40:56.578Z,12.40
2018-07-23T20:43:58.932Z,11.93
2018-07-23T20:47:01.266Z,10.50
2018-07-23T20:50:03.827Z,11.40
2018-07-23T20:53:06.153Z,13.10
2018-07-23T20:56:08.423Z,11.93
2018-07-23T20:59:10.669Z,16.20
2018-07-23T21:02:12.973Z,10.70
2018-07-23T21:05:15.244Z,13.50
2018-07-23T21:08:17.573Z,12.20
2018-07-23T21:11:19.844Z,11.57
2018-07-23T21:14:22.073Z,12.93
2018-07-23T21:17:24.357Z,11.37
2018-07-23T21:20:26.668Z,11.60
2018-07-23T21:23:28.905Z,13.63
2018-07-23T21:26:31.250Z,12.80
2018-07-23T21:29:33.537Z,12.80
2018-07-23T21:32:35.845Z,12.10
2018-07-23T21:35:38.193Z,13.80
2018-07-23T21:38:40.458Z,11.80
2018-07-23T21:41:42.732Z,12.87
2018-07-23T21:44:45.090Z,12.60
2018-07-23T21:51:53.118Z,11.70
2018-07-23T21:54:55.381Z,12.90
2018-07-23T21:57:57.667Z,13.40
2018-07-23T22:00:59.989Z,12.70
2018-07-23T22:04:02.293Z,11.97
2018-07-23T22:07:04.716Z,12.70
2018-07-23T22:10:07.973Z,13.00
2018-07-23T22:13:10.526Z,11.90
2018-07-23T22:16:12.795Z,13.93
2018-07-23T22:19:15.090Z,13.00
2018-07-23T22:22:17.457Z,13.37
2018-07-23T22:25:19.683Z,12.83
2018-07-23T22:28:22.131Z,13.27
2018-07-23T22:31:24.405Z,12.70
2018-07-23T22:34:26.695Z,13.83
2018-07-23T22:37:29.269Z,13.33
2018-07-23T22:40:31.706Z,13.13
2018-07-23T22:43:34.079Z,13.37
2018-07-23T22:46:36.545Z,13.53
2018-07-23T22:49:38.893Z,13.00
2018-07-23T22:52:41.246Z,12.50
2018-07-23T22:55:43.604Z,12.80
2018-07-23T22:58:45.892Z,14.07
2018-07-23T23:01:48.253Z,12.67
2018-07-23T23:04:50.516Z,13.97
2018-07-23T23:07:52.866Z,15.07
2018-07-23T23:10:55.193Z,15.97
2018-07-23T23:13:57.554Z,13.10
2018-07-23T23:16:59.841Z,12.90
2018-07-23T23:20:02.255Z,13.37
2018-07-23T23:23:04.501Z,15.60
2018-07-23T23:26:06.809Z,15.87
2018-07-23T23:29:09.118Z,14.17
2018-07-23T23:32:11.959Z,13.97
2018-07-23T23:35:20.927Z,13.10
2018-07-23T23:38:23.142Z,15.40
2018-07-23T23:41:25.538Z,15.20
2018-07-23T23:44:27.867Z,14.43
2018-07-23T23:47:30.281Z,14.33
2018-07-23T23:50:32.666Z,15.90
2018-07-23T23:53:35.098Z,14.57
2018-07-23T23:56:37.452Z,15.60
2018-07-23T23:59:40.144Z,14.80
